sensor_id;sensor_type;location;lat;lon;timestamp;temperature;humidity
17202;DHT22;8717;53.588;10.176;2023-08-07T00:01:41;14.50;99.90
17202;DHT22;8717;53.588;10.176;2023-08-07T00:04:08;14.50;99.90
17202;DHT22;8717;53.588;10.176;2023-08-07T00:06:35;14.50;99.90
17202;DHT22;8717;53.588;10.176;2023-08-07T00:09:04;14.50;99.90
17202;DHT22;8717;53.588;10.176;2023-08-07T00:11:30;14.40;99.90
17202;DHT22;8717;53.588;10.176;2023-08-07T00:13:58;14.40;99.90
17202;DHT22;8717;53.588;10.176;2023-08-07T00:16:25;14.40;99.90
17202;DHT22;8717;53.588;10.176;2023-08-07T00:18:51;14.40;99.90
17202;DHT22;8717;53.588;10.176;2023-08-07T00:21:21;14.40;99.90
17202;DHT22;8717;53.588;10.176;2023-08-07T00:23:48;14.40;99.90
17202;DHT22;8717;53.588;10.176;2023-08-07T00:26:17;14.40;99.90
17202;DHT22;8717;53.588;10.176;2023-08-07T00:28:44;14.40;99.90
17202;DHT22;8717;53.588;10.176;2023-08-07T00:31:11;14.40;99.90
17202;DHT22;8717;53.588;10.176;2023-08-07T00:33:39;14.30;99.90
17202;DHT22;8717;53.588;10.176;2023-08-07T00:36:07;14.30;99.90
17202;DHT22;8717;53.588;10.176;2023-08-07T00:38:34;14.30;99.90
17202;DHT22;8717;53.588;10.176;2023-08-07T00:41:01;14.30;99.90
17202;DHT22;8717;53.588;10.176;2023-08-07T00:43:29;14.30;99.90
17202;DHT22;8717;53.588;10.176;2023-08-07T00:45:56;14.30;99.90
17202;DHT22;8717;53.588;10.176;2023-08-07T00:48:23;14.30;99.90
17202;DHT22;8717;53.588;10.176;2023-08-07T00:50:51;14.30;99.90
17202;DHT22;8717;53.588;10.176;2023-08-07T00:53:18;14.30;99.90
17202;DHT22;8717;53.588;10.176;2023-08-07T00:55:46;14.30;99.90
17202;DHT22;8717;53.588;10.176;2023-08-07T00:58:13;14.20;99.90
17202;DHT22;8717;53.588;10.176;2023-08-07T01:00:42;14.20;99.90
17202;DHT22;8717;53.588;10.176;2023-08-07T01:03:08;14.20;99.90
17202;DHT22;8717;53.588;10.176;2023-08-07T01:05:38;14.20;99.90
17202;DHT22;8717;53.588;10.176;2023-08-07T01:08:05;14.20;99.90
17202;DHT22;8717;53.588;10.176;2023-08-07T01:10:39;14.10;99.90
17202;DHT22;8717;53.588;10.176;2023-08-07T01:13:16;14.10;99.90
17202;DHT22;8717;53.588;10.176;2023-08-07T01:15:47;14.10;99.90
17202;DHT22;8717;53.588;10.176;2023-08-07T01:18:15;14.10;99.90
17202;DHT22;8717;53.588;10.176;2023-08-07T01:20:43;14.00;99.90
17202;DHT22;8717;53.588;10.176;2023-08-07T01:23:11;14.00;99.90
17202;DHT22;8717;53.588;10.176;2023-08-07T01:25:37;14.00;99.90
17202;DHT22;8717;53.588;10.176;2023-08-07T01:28:11;13.90;99.90
17202;DHT22;8717;53.588;10.176;2023-08-07T01:30:44;13.90;99.90
17202;DHT22;8717;53.588;10.176;2023-08-07T01:33:17;13.90;99.90
17202;DHT22;8717;53.588;10.176;2023-08-07T01:35:49;13.80;99.90
17202;DHT22;8717;53.588;10.176;2023-08-07T01:38:21;13.80;99.90
17202;DHT22;8717;53.588;10.176;2023-08-07T01:40:50;13.80;99.90
17202;DHT22;8717;53.588;10.176;2023-08-07T01:43:18;13.80;99.90
17202;DHT22;8717;53.588;10.176;2023-08-07T01:45:45;13.70;99.90
17202;DHT22;8717;53.588;10.176;2023-08-07T01:48:12;13.70;99.90
17202;DHT22;8717;53.588;10.176;2023-08-07T01:50:39;13.70;99.90
17202;DHT22;8717;53.588;10.176;2023-08-07T01:53:06;13.70;99.90
17202;DHT22;8717;53.588;10.176;2023-08-07T01:55:34;13.70;99.90
17202;DHT22;8717;53.588;10.176;2023-08-07T01:58:01;13.60;99.90
17202;DHT22;8717;53.588;10.176;2023-08-07T02:00:28;13.60;99.90
17202;DHT22;8717;53.588;10.176;2023-08-07T02:02:54;13.60;99.90
17202;DHT22;8717;53.588;10.176;2023-08-07T02:05:21;13.60;99.90
17202;DHT22;8717;53.588;10.176;2023-08-07T02:07:48;13.60;99.90
17202;DHT22;8717;53.588;10.176;2023-08-07T02:10:15;13.60;99.90
17202;DHT22;8717;53.588;10.176;2023-08-07T02:12:43;13.50;99.90
17202;DHT22;8717;53.588;10.176;2023-08-07T02:15:10;13.50;99.90
17202;DHT22;8717;53.588;10.176;2023-08-07T02:17:37;13.50;99.90
17202;DHT22;8717;53.588;10.176;2023-08-07T02:20:07;13.50;99.90
17202;DHT22;8717;53.588;10.176;2023-08-07T02:22:34;13.50;99.90
17202;DHT22;8717;53.588;10.176;2023-08-07T02:25:01;13.50;99.90
17202;DHT22;8717;53.588;10.176;2023-08-07T02:27:28;13.40;99.90
17202;DHT22;8717;53.588;10.176;2023-08-07T02:29:57;13.40;99.90
17202;DHT22;8717;53.588;10.176;2023-08-07T02:32:24;13.40;99.90
17202;DHT22;8717;53.588;10.176;2023-08-07T02:34:53;13.40;99.90
17202;DHT22;8717;53.588;10.176;2023-08-07T02:37:23;13.40;99.90
17202;DHT22;8717;53.588;10.176;2023-08-07T02:39:50;13.40;99.90
17202;DHT22;8717;53.588;10.176;2023-08-07T02:42:17;13.40;99.90
17202;DHT22;8717;53.588;10.176;2023-08-07T02:44:44;13.40;99.90
17202;DHT22;8717;53.588;10.176;2023-08-07T02:47:12;13.40;99.90
17202;DHT22;8717;53.588;10.176;2023-08-07T02:49:39;13.40;99.90
17202;DHT22;8717;53.588;10.176;2023-08-07T02:52:06;13.40;99.90
17202;DHT22;8717;53.588;10.176;2023-08-07T02:54:33;13.40;99.90
17202;DHT22;8717;53.588;10.176;2023-08-07T02:57:00;13.40;99.90
17202;DHT22;8717;53.588;10.176;2023-08-07T02:59:27;13.40;99.90
17202;DHT22;8717;53.588;10.176;2023-08-07T03:01:53;13.40;99.90
17202;DHT22;8717;53.588;10.176;2023-08-07T03:04:22;13.40;99.90
17202;DHT22;8717;53.588;10.176;2023-08-07T03:06:48;13.40;99.90
17202;DHT22;8717;53.588;10.176;2023-08-07T03:09:15;13.40;99.90
17202;DHT22;8717;53.588;10.176;2023-08-07T03:11:42;13.40;99.90
17202;DHT22;8717;53.588;10.176;2023-08-07T03:14:08;13.40;99.90
17202;DHT22;8717;53.588;10.176;2023-08-07T03:16:35;13.40;99.90
17202;DHT22;8717;53.588;10.176;2023-08-07T03:19:02;13.50;99.90
17202;DHT22;8717;53.588;10.176;2023-08-07T03:21:30;13.50;99.90
17202;DHT22;8717;53.588;10.176;2023-08-07T03:23:56;13.50;99.90
17202;DHT22;8717;53.588;10.176;2023-08-07T03:26:23;13.60;99.90
17202;DHT22;8717;53.588;10.176;2023-08-07T03:28:50;13.60;99.90
17202;DHT22;8717;53.588;10.176;2023-08-07T03:31:17;13.70;99.90
17202;DHT22;8717;53.588;10.176;2023-08-07T03:33:45;13.70;99.90
17202;DHT22;8717;53.588;10.176;2023-08-07T03:36:13;13.70;99.90
17202;DHT22;8717;53.588;10.176;2023-08-07T03:38:42;13.80;99.90
17202;DHT22;8717;53.588;10.176;2023-08-07T03:41:09;13.80;99.90
17202;DHT22;8717;53.588;10.176;2023-08-07T03:43:39;13.90;99.90
17202;DHT22;8717;53.588;10.176;2023-08-07T03:46:05;13.90;99.90
17202;DHT22;8717;53.588;10.176;2023-08-07T03:48:32;13.90;99.90
17202;DHT22;8717;53.588;10.176;2023-08-07T03:51:05;13.90;99.90
17202;DHT22;8717;53.588;10.176;2023-08-07T03:53:37;14.00;99.90
17202;DHT22;8717;53.588;10.176;2023-08-07T03:56:05;14.00;99.90
17202;DHT22;8717;53.588;10.176;2023-08-07T03:58:33;14.00;99.90
17202;DHT22;8717;53.588;10.176;2023-08-07T04:01:00;14.00;99.90
17202;DHT22;8717;53.588;10.176;2023-08-07T04:03:26;14.00;99.90
17202;DHT22;8717;53.588;10.176;2023-08-07T04:05:54;14.00;99.90
17202;DHT22;8717;53.588;10.176;2023-08-07T04:08:22;13.90;99.90
17202;DHT22;8717;53.588;10.176;2023-08-07T04:10:58;13.90;99.90
17202;DHT22;8717;53.588;10.176;2023-08-07T04:13:27;13.90;99.90
17202;DHT22;8717;53.588;10.176;2023-08-07T04:15:54;13.90;99.90
17202;DHT22;8717;53.588;10.176;2023-08-07T04:18:21;13.90;99.90
17202;DHT22;8717;53.588;10.176;2023-08-07T04:20:49;13.90;99.90
17202;DHT22;8717;53.588;10.176;2023-08-07T04:23:16;13.90;99.90
17202;DHT22;8717;53.588;10.176;2023-08-07T04:25:49;13.90;99.90
17202;DHT22;8717;53.588;10.176;2023-08-07T04:28:17;13.90;99.90
17202;DHT22;8717;53.588;10.176;2023-08-07T04:30:49;13.90;99.90
17202;DHT22;8717;53.588;10.176;2023-08-07T04:33:16;14.00;99.90
17202;DHT22;8717;53.588;10.176;2023-08-07T04:35:43;13.90;99.90
17202;DHT22;8717;53.588;10.176;2023-08-07T04:38:12;14.00;99.90
17202;DHT22;8717;53.588;10.176;2023-08-07T04:40:43;14.00;99.90
17202;DHT22;8717;53.588;10.176;2023-08-07T04:43:11;14.00;99.90
17202;DHT22;8717;53.588;10.176;2023-08-07T04:45:37;14.00;99.90
17202;DHT22;8717;53.588;10.176;2023-08-07T04:48:06;14.00;99.90
17202;DHT22;8717;53.588;10.176;2023-08-07T04:50:33;14.10;99.90
17202;DHT22;8717;53.588;10.176;2023-08-07T04:53:00;14.10;99.90
17202;DHT22;8717;53.588;10.176;2023-08-07T04:55:27;14.10;99.90
17202;DHT22;8717;53.588;10.176;2023-08-07T04:57:53;14.10;99.90
17202;DHT22;8717;53.588;10.176;2023-08-07T05:00:21;14.10;99.90
17202;DHT22;8717;53.588;10.176;2023-08-07T05:02:48;14.20;99.90
17202;DHT22;8717;53.588;10.176;2023-08-07T05:05:16;14.20;99.90
17202;DHT22;8717;53.588;10.176;2023-08-07T05:07:44;14.20;99.90
17202;DHT22;8717;53.588;10.176;2023-08-07T05:10:11;14.30;99.90
17202;DHT22;8717;53.588;10.176;2023-08-07T05:12:38;14.30;99.90
17202;DHT22;8717;53.588;10.176;2023-08-07T05:15:05;14.30;99.90
17202;DHT22;8717;53.588;10.176;2023-08-07T05:17:32;14.40;99.90
17202;DHT22;8717;53.588;10.176;2023-08-07T05:20:01;14.40;99.90
17202;DHT22;8717;53.588;10.176;2023-08-07T05:22:38;14.50;99.90
17202;DHT22;8717;53.588;10.176;2023-08-07T05:25:09;14.40;99.90
17202;DHT22;8717;53.588;10.176;2023-08-07T05:27:41;14.60;99.90
17202;DHT22;8717;53.588;10.176;2023-08-07T05:30:08;14.60;99.90
17202;DHT22;8717;53.588;10.176;2023-08-07T05:32:35;14.60;99.90
17202;DHT22;8717;53.588;10.176;2023-08-07T05:35:03;14.70;99.90
17202;DHT22;8717;53.588;10.176;2023-08-07T05:37:30;14.70;99.90
17202;DHT22;8717;53.588;10.176;2023-08-07T05:39:58;14.80;99.90
17202;DHT22;8717;53.588;10.176;2023-08-07T05:42:25;14.80;99.90
17202;DHT22;8717;53.588;10.176;2023-08-07T05:44:52;14.90;99.90
17202;DHT22;8717;53.588;10.176;2023-08-07T05:47:19;14.90;99.90
17202;DHT22;8717;53.588;10.176;2023-08-07T05:49:45;15.00;99.90
17202;DHT22;8717;53.588;10.176;2023-08-07T05:52:13;15.00;99.90
17202;DHT22;8717;53.588;10.176;2023-08-07T05:54:52;15.10;99.90
17202;DHT22;8717;53.588;10.176;2023-08-07T05:57:30;15.10;99.90
17202;DHT22;8717;53.588;10.176;2023-08-07T05:59:57;15.20;99.90
17202;DHT22;8717;53.588;10.176;2023-08-07T06:02:37;15.20;99.90
17202;DHT22;8717;53.588;10.176;2023-08-07T06:05:13;15.20;99.90
17202;DHT22;8717;53.588;10.176;2023-08-07T06:07:48;15.30;99.90
17202;DHT22;8717;53.588;10.176;2023-08-07T06:10:17;15.30;99.90
17202;DHT22;8717;53.588;10.176;2023-08-07T06:12:50;15.40;99.90
17202;DHT22;8717;53.588;10.176;2023-08-07T06:15:16;15.50;99.90
17202;DHT22;8717;53.588;10.176;2023-08-07T06:17:43;15.50;99.90
17202;DHT22;8717;53.588;10.176;2023-08-07T06:20:10;15.50;99.90
17202;DHT22;8717;53.588;10.176;2023-08-07T06:22:41;15.60;99.90
17202;DHT22;8717;53.588;10.176;2023-08-07T06:25:09;15.60;99.90
17202;DHT22;8717;53.588;10.176;2023-08-07T06:27:37;15.70;99.90
17202;DHT22;8717;53.588;10.176;2023-08-07T06:30:19;15.70;99.90
17202;DHT22;8717;53.588;10.176;2023-08-07T06:32:47;15.80;99.90
17202;DHT22;8717;53.588;10.176;2023-08-07T06:35:13;15.80;99.90
17202;DHT22;8717;53.588;10.176;2023-08-07T06:37:40;15.90;99.90
17202;DHT22;8717;53.588;10.176;2023-08-07T06:40:08;15.90;99.90
17202;DHT22;8717;53.588;10.176;2023-08-07T06:42:35;16.00;99.90
17202;DHT22;8717;53.588;10.176;2023-08-07T06:45:05;16.00;99.90
17202;DHT22;8717;53.588;10.176;2023-08-07T06:47:39;16.10;99.90
17202;DHT22;8717;53.588;10.176;2023-08-07T06:50:06;16.20;99.90
17202;DHT22;8717;53.588;10.176;2023-08-07T06:52:33;16.20;99.90
17202;DHT22;8717;53.588;10.176;2023-08-07T06:55:00;16.30;99.90
17202;DHT22;8717;53.588;10.176;2023-08-07T06:57:27;16.30;99.90
17202;DHT22;8717;53.588;10.176;2023-08-07T06:59:54;16.30;99.90
17202;DHT22;8717;53.588;10.176;2023-08-07T07:02:20;16.30;99.90
17202;DHT22;8717;53.588;10.176;2023-08-07T07:04:48;16.30;99.90
17202;DHT22;8717;53.588;10.176;2023-08-07T07:07:15;16.30;99.90
17202;DHT22;8717;53.588;10.176;2023-08-07T07:09:42;16.30;99.90
17202;DHT22;8717;53.588;10.176;2023-08-07T07:12:09;16.40;99.90
17202;DHT22;8717;53.588;10.176;2023-08-07T07:14:36;16.40;99.90
17202;DHT22;8717;53.588;10.176;2023-08-07T07:17:02;16.50;99.90
17202;DHT22;8717;53.588;10.176;2023-08-07T07:19:29;16.60;99.90
17202;DHT22;8717;53.588;10.176;2023-08-07T07:21:57;16.60;99.90
17202;DHT22;8717;53.588;10.176;2023-08-07T07:24:24;16.70;99.90
17202;DHT22;8717;53.588;10.176;2023-08-07T07:26:50;16.70;99.90
17202;DHT22;8717;53.588;10.176;2023-08-07T07:29:17;16.90;99.90
17202;DHT22;8717;53.588;10.176;2023-08-07T07:31:44;17.00;99.90
17202;DHT22;8717;53.588;10.176;2023-08-07T07:34:12;17.20;99.90
17202;DHT22;8717;53.588;10.176;2023-08-07T07:36:38;17.40;99.90
17202;DHT22;8717;53.588;10.176;2023-08-07T07:39:06;17.50;99.90
17202;DHT22;8717;53.588;10.176;2023-08-07T07:41:35;17.60;99.90
17202;DHT22;8717;53.588;10.176;2023-08-07T07:44:02;17.60;99.90
17202;DHT22;8717;53.588;10.176;2023-08-07T07:46:32;17.50;99.90
17202;DHT22;8717;53.588;10.176;2023-08-07T07:48:59;17.50;99.90
17202;DHT22;8717;53.588;10.176;2023-08-07T07:51:26;17.40;99.90
17202;DHT22;8717;53.588;10.176;2023-08-07T07:53:54;17.30;99.90
17202;DHT22;8717;53.588;10.176;2023-08-07T07:56:22;17.30;99.90
17202;DHT22;8717;53.588;10.176;2023-08-07T07:58:49;17.40;99.90
17202;DHT22;8717;53.588;10.176;2023-08-07T08:01:16;17.50;99.90
17202;DHT22;8717;53.588;10.176;2023-08-07T08:03:43;17.80;99.90
17202;DHT22;8717;53.588;10.176;2023-08-07T08:06:11;18.00;99.90
17202;DHT22;8717;53.588;10.176;2023-08-07T08:08:38;18.30;99.90
17202;DHT22;8717;53.588;10.176;2023-08-07T08:11:05;18.60;99.90
17202;DHT22;8717;53.588;10.176;2023-08-07T08:13:33;18.80;99.90
17202;DHT22;8717;53.588;10.176;2023-08-07T08:16:01;18.90;99.90
17202;DHT22;8717;53.588;10.176;2023-08-07T08:18:27;19.00;99.90
17202;DHT22;8717;53.588;10.176;2023-08-07T08:20:54;19.10;99.90
17202;DHT22;8717;53.588;10.176;2023-08-07T08:23:21;18.90;99.90
17202;DHT22;8717;53.588;10.176;2023-08-07T08:25:48;18.80;99.90
17202;DHT22;8717;53.588;10.176;2023-08-07T08:28:17;18.60;99.90
17202;DHT22;8717;53.588;10.176;2023-08-07T08:30:45;18.40;99.90
17202;DHT22;8717;53.588;10.176;2023-08-07T08:33:12;18.20;99.90
17202;DHT22;8717;53.588;10.176;2023-08-07T08:35:40;18.00;99.90
17202;DHT22;8717;53.588;10.176;2023-08-07T08:38:07;17.90;99.90
17202;DHT22;8717;53.588;10.176;2023-08-07T08:40:34;17.80;99.90
17202;DHT22;8717;53.588;10.176;2023-08-07T08:43:01;17.80;99.90
17202;DHT22;8717;53.588;10.176;2023-08-07T08:45:30;17.90;99.90
17202;DHT22;8717;53.588;10.176;2023-08-07T08:48:01;17.90;99.90
17202;DHT22;8717;53.588;10.176;2023-08-07T08:50:29;18.00;99.90
17202;DHT22;8717;53.588;10.176;2023-08-07T08:52:57;17.90;99.90
17202;DHT22;8717;53.588;10.176;2023-08-07T08:55:24;17.90;99.90
17202;DHT22;8717;53.588;10.176;2023-08-07T08:57:52;17.80;99.90
17202;DHT22;8717;53.588;10.176;2023-08-07T09:00:28;17.60;99.90
17202;DHT22;8717;53.588;10.176;2023-08-07T09:06:35;17.20;99.90
17202;DHT22;8717;53.588;10.176;2023-08-07T09:09:02;16.90;99.90
17202;DHT22;8717;53.588;10.176;2023-08-07T09:11:29;16.60;99.90
17202;DHT22;8717;53.588;10.176;2023-08-07T09:13:57;16.40;99.90
17202;DHT22;8717;53.588;10.176;2023-08-07T09:16:26;16.20;99.90
17202;DHT22;8717;53.588;10.176;2023-08-07T09:18:54;16.00;99.90
17202;DHT22;8717;53.588;10.176;2023-08-07T09:21:21;15.80;99.90
17202;DHT22;8717;53.588;10.176;2023-08-07T09:23:48;15.60;99.90
17202;DHT22;8717;53.588;10.176;2023-08-07T09:26:21;15.60;99.90
17202;DHT22;8717;53.588;10.176;2023-08-07T09:28:51;15.60;99.90
17202;DHT22;8717;53.588;10.176;2023-08-07T09:31:17;15.70;99.90
17202;DHT22;8717;53.588;10.176;2023-08-07T09:33:46;16.00;99.90
17202;DHT22;8717;53.588;10.176;2023-08-07T09:36:15;16.30;99.90
17202;DHT22;8717;53.588;10.176;2023-08-07T09:38:42;16.50;99.90
17202;DHT22;8717;53.588;10.176;2023-08-07T09:41:09;16.80;99.90
17202;DHT22;8717;53.588;10.176;2023-08-07T09:43:36;16.90;99.90
17202;DHT22;8717;53.588;10.176;2023-08-07T09:46:04;17.10;99.90
17202;DHT22;8717;53.588;10.176;2023-08-07T09:48:31;17.10;99.90
17202;DHT22;8717;53.588;10.176;2023-08-07T09:51:00;17.10;99.90
17202;DHT22;8717;53.588;10.176;2023-08-07T09:53:29;17.00;99.90
17202;DHT22;8717;53.588;10.176;2023-08-07T09:55:56;17.00;99.90
17202;DHT22;8717;53.588;10.176;2023-08-07T09:58:24;17.00;99.90
17202;DHT22;8717;53.588;10.176;2023-08-07T10:00:51;17.10;99.90
17202;DHT22;8717;53.588;10.176;2023-08-07T10:03:19;17.30;99.90
17202;DHT22;8717;53.588;10.176;2023-08-07T10:05:46;17.60;99.90
17202;DHT22;8717;53.588;10.176;2023-08-07T10:08:13;18.00;99.90
17202;DHT22;8717;53.588;10.176;2023-08-07T10:10:41;18.30;99.90
17202;DHT22;8717;53.588;10.176;2023-08-07T10:13:08;18.60;99.90
17202;DHT22;8717;53.588;10.176;2023-08-07T10:15:35;18.90;99.90
17202;DHT22;8717;53.588;10.176;2023-08-07T10:18:01;19.20;99.90
17202;DHT22;8717;53.588;10.176;2023-08-07T10:20:30;19.50;99.90
17202;DHT22;8717;53.588;10.176;2023-08-07T10:23:00;19.80;99.90
17202;DHT22;8717;53.588;10.176;2023-08-07T10:25:28;20.00;99.80
17202;DHT22;8717;53.588;10.176;2023-08-07T10:27:57;20.10;99.90
17202;DHT22;8717;53.588;10.176;2023-08-07T10:30:26;20.30;99.40
17202;DHT22;8717;53.588;10.176;2023-08-07T10:32:54;20.40;99.40
17202;DHT22;8717;53.588;10.176;2023-08-07T10:35:24;20.60;98.80
17202;DHT22;8717;53.588;10.176;2023-08-07T10:37:52;20.80;98.80
17202;DHT22;8717;53.588;10.176;2023-08-07T10:40:19;21.10;98.90
17202;DHT22;8717;53.588;10.176;2023-08-07T10:42:52;21.30;97.80
17202;DHT22;8717;53.588;10.176;2023-08-07T10:45:23;21.40;96.10
17202;DHT22;8717;53.588;10.176;2023-08-07T10:48:05;21.50;95.80
17202;DHT22;8717;53.588;10.176;2023-08-07T10:50:32;21.50;96.10
17202;DHT22;8717;53.588;10.176;2023-08-07T10:53:00;21.40;96.50
17202;DHT22;8717;53.588;10.176;2023-08-07T10:55:31;21.40;96.40
17202;DHT22;8717;53.588;10.176;2023-08-07T10:57:59;21.30;95.30
17202;DHT22;8717;53.588;10.176;2023-08-07T11:00:27;21.20;96.10
17202;DHT22;8717;53.588;10.176;2023-08-07T11:02:54;21.20;95.30
17202;DHT22;8717;53.588;10.176;2023-08-07T11:05:24;21.30;95.50
17202;DHT22;8717;53.588;10.176;2023-08-07T11:07:53;21.20;95.50
17202;DHT22;8717;53.588;10.176;2023-08-07T11:10:20;21.10;95.30
17202;DHT22;8717;53.588;10.176;2023-08-07T11:12:48;21.00;96.30
17202;DHT22;8717;53.588;10.176;2023-08-07T11:15:15;20.90;95.60
17202;DHT22;8717;53.588;10.176;2023-08-07T11:17:43;20.90;96.90
17202;DHT22;8717;53.588;10.176;2023-08-07T11:20:11;21.00;97.20
17202;DHT22;8717;53.588;10.176;2023-08-07T11:22:38;21.20;96.90
17202;DHT22;8717;53.588;10.176;2023-08-07T11:25:07;21.40;96.70
17202;DHT22;8717;53.588;10.176;2023-08-07T11:27:38;21.60;95.70
17202;DHT22;8717;53.588;10.176;2023-08-07T11:30:06;21.80;96.00
17202;DHT22;8717;53.588;10.176;2023-08-07T11:32:36;21.80;95.30
17202;DHT22;8717;53.588;10.176;2023-08-07T11:35:06;21.70;94.80
17202;DHT22;8717;53.588;10.176;2023-08-07T11:37:33;21.60;95.40
17202;DHT22;8717;53.588;10.176;2023-08-07T11:40:01;21.50;96.00
17202;DHT22;8717;53.588;10.176;2023-08-07T11:42:28;21.40;96.00
17202;DHT22;8717;53.588;10.176;2023-08-07T11:44:55;21.40;96.50
17202;DHT22;8717;53.588;10.176;2023-08-07T11:47:22;21.50;96.50
17202;DHT22;8717;53.588;10.176;2023-08-07T11:49:48;21.60;97.00
17202;DHT22;8717;53.588;10.176;2023-08-07T11:52:16;21.80;96.20
17202;DHT22;8717;53.588;10.176;2023-08-07T11:54:46;21.90;95.80
17202;DHT22;8717;53.588;10.176;2023-08-07T11:57:17;22.00;96.00
17202;DHT22;8717;53.588;10.176;2023-08-07T11:59:48;21.90;95.00
17202;DHT22;8717;53.588;10.176;2023-08-07T12:02:15;21.60;94.20
17202;DHT22;8717;53.588;10.176;2023-08-07T12:04:41;21.40;93.80
17202;DHT22;8717;53.588;10.176;2023-08-07T12:07:08;21.10;93.20
17202;DHT22;8717;53.588;10.176;2023-08-07T12:09:38;20.90;93.80
17202;DHT22;8717;53.588;10.176;2023-08-07T12:12:06;20.80;94.20
17202;DHT22;8717;53.588;10.176;2023-08-07T12:14:33;20.70;94.00
17202;DHT22;8717;53.588;10.176;2023-08-07T12:17:01;20.60;94.60
17202;DHT22;8717;53.588;10.176;2023-08-07T12:19:36;20.50;95.70
17202;DHT22;8717;53.588;10.176;2023-08-07T12:22:06;20.20;95.80
17202;DHT22;8717;53.588;10.176;2023-08-07T12:24:35;20.10;96.20
17202;DHT22;8717;53.588;10.176;2023-08-07T12:27:04;19.80;95.80
17202;DHT22;8717;53.588;10.176;2023-08-07T12:29:31;19.60;96.20
17202;DHT22;8717;53.588;10.176;2023-08-07T12:31:57;19.50;96.50
17202;DHT22;8717;53.588;10.176;2023-08-07T12:34:26;19.40;96.40
17202;DHT22;8717;53.588;10.176;2023-08-07T12:36:53;19.30;96.80
17202;DHT22;8717;53.588;10.176;2023-08-07T12:39:20;19.40;97.00
17202;DHT22;8717;53.588;10.176;2023-08-07T12:41:47;19.30;97.20
17202;DHT22;8717;53.588;10.176;2023-08-07T12:44:16;19.40;97.60
17202;DHT22;8717;53.588;10.176;2023-08-07T12:46:43;19.40;97.60
17202;DHT22;8717;53.588;10.176;2023-08-07T12:49:09;19.40;99.10
17202;DHT22;8717;53.588;10.176;2023-08-07T12:51:36;19.40;99.90
17202;DHT22;8717;53.588;10.176;2023-08-07T12:54:03;19.20;99.90
17202;DHT22;8717;53.588;10.176;2023-08-07T12:56:30;19.10;99.90
17202;DHT22;8717;53.588;10.176;2023-08-07T12:58:56;18.90;99.90
17202;DHT22;8717;53.588;10.176;2023-08-07T13:01:24;18.70;99.90
17202;DHT22;8717;53.588;10.176;2023-08-07T13:03:52;18.60;99.90
17202;DHT22;8717;53.588;10.176;2023-08-07T13:06:18;18.70;99.90
17202;DHT22;8717;53.588;10.176;2023-08-07T13:08:45;18.70;99.80
17202;DHT22;8717;53.588;10.176;2023-08-07T13:11:12;18.80;99.50
17202;DHT22;8717;53.588;10.176;2023-08-07T13:13:39;18.90;99.40
17202;DHT22;8717;53.588;10.176;2023-08-07T13:16:06;19.00;99.20
17202;DHT22;8717;53.588;10.176;2023-08-07T13:18:34;19.10;99.30
17202;DHT22;8717;53.588;10.176;2023-08-07T13:21:00;19.30;98.40
17202;DHT22;8717;53.588;10.176;2023-08-07T13:23:27;19.50;98.00
17202;DHT22;8717;53.588;10.176;2023-08-07T13:25:54;19.70;98.00
17202;DHT22;8717;53.588;10.176;2023-08-07T13:28:21;19.80;98.40
17202;DHT22;8717;53.588;10.176;2023-08-07T13:30:48;20.00;98.00
17202;DHT22;8717;53.588;10.176;2023-08-07T13:33:16;20.20;97.60
17202;DHT22;8717;53.588;10.176;2023-08-07T13:35:46;20.40;97.40
17202;DHT22;8717;53.588;10.176;2023-08-07T13:38:13;20.60;96.50
17202;DHT22;8717;53.588;10.176;2023-08-07T13:40:41;20.70;97.00
17202;DHT22;8717;53.588;10.176;2023-08-07T13:43:09;20.80;96.70
17202;DHT22;8717;53.588;10.176;2023-08-07T13:45:36;20.90;96.70
17202;DHT22;8717;53.588;10.176;2023-08-07T13:48:03;20.80;96.00
17202;DHT22;8717;53.588;10.176;2023-08-07T13:50:31;20.90;96.10
17202;DHT22;8717;53.588;10.176;2023-08-07T13:53:01;20.90;95.10
17202;DHT22;8717;53.588;10.176;2023-08-07T13:55:31;20.90;94.70
17202;DHT22;8717;53.588;10.176;2023-08-07T13:58:02;20.80;94.90
17202;DHT22;8717;53.588;10.176;2023-08-07T14:00:29;20.70;94.60
17202;DHT22;8717;53.588;10.176;2023-08-07T14:02:56;20.60;94.30
17202;DHT22;8717;53.588;10.176;2023-08-07T14:05:23;20.50;94.60
17202;DHT22;8717;53.588;10.176;2023-08-07T14:07:50;20.30;94.40
17202;DHT22;8717;53.588;10.176;2023-08-07T14:10:19;20.20;94.50
17202;DHT22;8717;53.588;10.176;2023-08-07T14:12:46;20.00;94.60
17202;DHT22;8717;53.588;10.176;2023-08-07T14:15:13;19.80;95.10
17202;DHT22;8717;53.588;10.176;2023-08-07T14:17:39;19.70;95.00
17202;DHT22;8717;53.588;10.176;2023-08-07T14:20:07;19.50;95.10
17202;DHT22;8717;53.588;10.176;2023-08-07T14:22:36;19.40;95.50
17202;DHT22;8717;53.588;10.176;2023-08-07T14:25:04;19.20;95.50
17202;DHT22;8717;53.588;10.176;2023-08-07T14:27:32;19.20;95.70
17202;DHT22;8717;53.588;10.176;2023-08-07T14:30:00;19.10;95.60
17202;DHT22;8717;53.588;10.176;2023-08-07T14:32:26;19.10;95.60
17202;DHT22;8717;53.588;10.176;2023-08-07T14:34:53;19.00;95.30
17202;DHT22;8717;53.588;10.176;2023-08-07T14:37:19;19.00;94.90
17202;DHT22;8717;53.588;10.176;2023-08-07T14:39:46;19.00;94.90
17202;DHT22;8717;53.588;10.176;2023-08-07T14:42:13;19.10;94.90
17202;DHT22;8717;53.588;10.176;2023-08-07T14:44:41;19.10;95.20
17202;DHT22;8717;53.588;10.176;2023-08-07T14:47:07;19.10;94.10
17202;DHT22;8717;53.588;10.176;2023-08-07T14:49:35;19.10;94.50
17202;DHT22;8717;53.588;10.176;2023-08-07T14:52:02;19.10;94.80
17202;DHT22;8717;53.588;10.176;2023-08-07T14:54:29;19.10;95.10
17202;DHT22;8717;53.588;10.176;2023-08-07T14:56:56;19.20;94.40
17202;DHT22;8717;53.588;10.176;2023-08-07T14:59:23;19.20;93.70
17202;DHT22;8717;53.588;10.176;2023-08-07T15:01:51;19.20;93.60
17202;DHT22;8717;53.588;10.176;2023-08-07T15:04:18;19.10;93.70
17202;DHT22;8717;53.588;10.176;2023-08-07T15:06:45;19.00;94.10
17202;DHT22;8717;53.588;10.176;2023-08-07T15:09:13;18.90;95.70
17202;DHT22;8717;53.588;10.176;2023-08-07T15:11:40;18.70;98.10
17202;DHT22;8717;53.588;10.176;2023-08-07T15:14:07;18.40;98.30
17202;DHT22;8717;53.588;10.176;2023-08-07T15:16:33;18.10;98.50
17202;DHT22;8717;53.588;10.176;2023-08-07T15:19:02;17.90;99.00
17202;DHT22;8717;53.588;10.176;2023-08-07T15:21:29;17.70;99.70
17202;DHT22;8717;53.588;10.176;2023-08-07T15:23:55;17.50;99.90
17202;DHT22;8717;53.588;10.176;2023-08-07T15:26:22;17.30;99.90
17202;DHT22;8717;53.588;10.176;2023-08-07T15:28:49;17.20;99.90
17202;DHT22;8717;53.588;10.176;2023-08-07T15:31:16;17.00;99.90
17202;DHT22;8717;53.588;10.176;2023-08-07T15:33:43;16.80;99.90
17202;DHT22;8717;53.588;10.176;2023-08-07T15:36:15;16.60;99.90
17202;DHT22;8717;53.588;10.176;2023-08-07T15:38:42;16.50;99.90